createdAt,value
2022-11-15T00:00:26.767Z,21.33
2022-11-15T00:01:30.866Z,24.30
2022-11-15T00:02:36.264Z,24.38
2022-11-15T00:03:38.645Z,24.38
2022-11-15T00:04:40.503Z,25.38
2022-11-15T00:05:43.639Z,24.05
2022-11-15T00:06:45.233Z,24.77
2022-11-15T00:07:55.795Z,18.33
2022-11-15T00:09:01.743Z,19.13
2022-11-15T00:10:07.540Z,17.15
2022-11-15T00:11:11.912Z,15.65
2022-11-15T00:12:16.045Z,15.88
2022-11-15T00:13:21.452Z,16.50
2022-11-15T00:14:28.976Z,15.95
2022-11-15T00:15:31.653Z,13.70
2022-11-15T00:16:34.587Z,15.57
2022-11-15T00:17:36.635Z,15.23
2022-11-15T00:18:39.503Z,16.45
2022-11-15T00:19:41.776Z,15.20
2022-11-15T00:20:45.056Z,21.02
2022-11-15T00:21:48.875Z,23.83
2022-11-15T00:22:51.668Z,20.58
2022-11-15T00:23:55.868Z,22.60
2022-11-15T00:24:58.703Z,20.75
2022-11-15T00:26:01.054Z,22.30
2022-11-15T00:27:07.932Z,22.38
2022-11-15T00:28:10.639Z,21.67
2022-11-15T00:29:12.828Z,23.33
2022-11-15T00:30:14.851Z,21.15
2022-11-15T00:31:16.721Z,22.73
2022-11-15T00:32:19.861Z,17.08
2022-11-15T00:33:21.674Z,20.80
2022-11-15T00:34:26.505Z,19.38
2022-11-15T00:35:28.646Z,15.80
2022-11-15T00:36:36.609Z,15.40
2022-11-15T00:37:38.661Z,15.48
2022-11-15T00:38:41.531Z,14.63
2022-11-15T00:39:45.911Z,14.07
2022-11-15T00:40:49.854Z,12.85
2022-11-15T00:41:51.678Z,14.13
2022-11-15T00:42:54.379Z,14.10
2022-11-15T00:43:56.784Z,15.43
2022-11-15T00:44:59.596Z,14.63
2022-11-15T00:46:03.247Z,13.13
2022-11-15T00:47:06.055Z,14.63
2022-11-15T00:48:08.498Z,13.73
2022-11-15T00:49:10.671Z,13.68
2022-11-15T00:50:15.121Z,13.43
2022-11-15T00:51:17.647Z,17.25
2022-11-15T00:52:21.948Z,15.45
2022-11-15T00:53:24.923Z,17.50
2022-11-15T00:54:26.641Z,15.07
2022-11-15T00:55:31.607Z,16.23
2022-11-15T00:56:37.430Z,24.15
2022-11-15T00:57:40.147Z,22.33
2022-11-15T00:58:41.662Z,22.02
2022-11-15T00:59:43.639Z,20.98
2022-11-15T01:00:45.684Z,20.65
2022-11-15T01:01:47.662Z,19.75
2022-11-15T01:02:51.507Z,20.80
2022-11-15T01:04:00.013Z,16.27
2022-11-15T01:05:06.027Z,18.80
2022-11-15T01:06:11.196Z,20.92
2022-11-15T01:07:13.761Z,19.33
2022-11-15T01:08:17.067Z,19.17
2022-11-15T01:09:19.021Z,20.85
2022-11-15T01:10:23.859Z,20.98
2022-11-15T01:11:25.709Z,15.85
2022-11-15T01:12:27.795Z,18.55
2022-11-15T01:13:34.351Z,15.77
2022-11-15T01:14:37.170Z,19.02
2022-11-15T01:15:40.656Z,18.58
2022-11-15T01:16:43.376Z,20.30
2022-11-15T01:17:45.660Z,19.02
2022-11-15T01:18:51.799Z,16.45
2022-11-15T01:19:56.352Z,15.10
2022-11-15T01:20:57.848Z,16.80
2022-11-15T01:21:59.703Z,16.75
2022-11-15T01:23:01.693Z,18.00
2022-11-15T01:24:03.964Z,16.05
2022-11-15T01:25:06.936Z,16.50
2022-11-15T01:26:11.298Z,16.00
2022-11-15T01:27:13.654Z,17.00
2022-11-15T01:28:15.906Z,15.52
2022-11-15T01:29:17.760Z,16.60
2022-11-15T01:30:19.571Z,17.13
2022-11-15T01:31:22.020Z,16.55
2022-11-15T01:32:24.544Z,21.65
2022-11-15T01:33:26.764Z,17.45
2022-11-15T01:34:28.296Z,17.73
2022-11-15T01:35:30.739Z,19.70
2022-11-15T01:36:33.494Z,17.90
2022-11-15T01:37:35.054Z,19.88
2022-11-15T01:38:39.062Z,18.38
2022-11-15T01:39:40.594Z,18.20
2022-11-15T01:40:43.595Z,20.80
2022-11-15T01:41:45.676Z,19.45
2022-11-15T01:42:48.207Z,20.30
2022-11-15T01:43:55.118Z,19.35
2022-11-15T01:44:57.884Z,18.88
2022-11-15T01:46:08.130Z,18.52
2022-11-15T01:47:13.362Z,20.77
2022-11-15T01:48:16.354Z,19.88
2022-11-15T01:49:21.871Z,21.07
2022-11-15T01:50:26.718Z,20.48
2022-11-15T01:51:33.715Z,20.20
2022-11-15T01:52:36.308Z,20.20
2022-11-15T01:53:39.538Z,19.75
2022-11-15T01:54:42.152Z,20.50
2022-11-15T01:55:45.485Z,20.40
2022-11-15T01:56:54.046Z,17.35
2022-11-15T01:57:58.161Z,14.52
2022-11-15T01:59:02.502Z,12.25
2022-11-15T02:00:08.335Z,12.75
2022-11-15T02:01:11.423Z,12.13
2022-11-15T02:02:14.878Z,11.55
2022-11-15T02:03:17.043Z,11.77
2022-11-15T02:04:25.676Z,14.35
2022-11-15T02:05:27.687Z,15.48
2022-11-15T02:06:30.667Z,15.77
2022-11-15T02:07:33.539Z,14.70
2022-11-15T02:08:35.131Z,15.57
2022-11-15T02:09:38.494Z,18.85
2022-11-15T02:10:43.150Z,19.35
2022-11-15T02:11:47.691Z,16.90
2022-11-15T02:12:52.672Z,17.25
2022-11-15T02:13:56.643Z,10.85
2022-11-15T02:14:58.813Z,13.07
2022-11-15T02:16:30.479Z,11.75
2022-11-15T02:17:52.701Z,12.65
2022-11-15T02:18:58.879Z,14.63
2022-11-15T02:20:19.362Z,12.65
2022-11-15T02:21:47.015Z,13.25
2022-11-15T02:22:52.066Z,11.60
2022-11-15T02:24:12.468Z,10.75
2022-11-15T02:25:19.806Z,10.27
2022-11-15T02:26:41.295Z,10.75
2022-11-15T02:28:01.375Z,12.13
2022-11-15T02:29:07.261Z,11.98
2022-11-15T02:30:26.937Z,11.88
2022-11-15T02:31:47.234Z,10.77
2022-11-15T02:32:55.395Z,10.48
2022-11-15T02:34:08.131Z,11.55
2022-11-15T02:35:21.470Z,12.10
2022-11-15T02:36:59.959Z,10.77
2022-11-15T02:38:23.583Z,12.38
2022-11-15T02:39:45.692Z,10.63
2022-11-15T02:41:06.317Z,11.90
2022-11-15T02:42:30.541Z,15.60
2022-11-15T02:43:59.813Z,17.02
2022-11-15T02:45:04.828Z,16.90
2022-11-15T02:46:16.784Z,17.73
2022-11-15T02:47:18.861Z,12.60
2022-11-15T02:48:22.531Z,12.18
2022-11-15T02:49:27.162Z,15.38
2022-11-15T02:50:32.494Z,12.40
2022-11-15T02:51:35.148Z,12.85
2022-11-15T02:52:36.719Z,10.57
2022-11-15T02:53:38.713Z,10.80
2022-11-15T02:54:41.686Z,11.27
2022-11-15T02:55:49.460Z,12.20
2022-11-15T02:56:54.594Z,13.07
2022-11-15T02:58:25.723Z,11.77
2022-11-15T02:59:46.651Z,11.80
2022-11-15T03:00:57.292Z,11.60
2022-11-15T03:02:07.587Z,9.95
2022-11-15T03:03:28.739Z,10.65
2022-11-15T03:04:53.452Z,12.20
2022-11-15T03:06:11.174Z,14.48
2022-11-15T03:07:20.259Z,15.15
2022-11-15T03:08:27.491Z,15.75
2022-11-15T03:09:36.383Z,10.55
2022-11-15T03:10:50.791Z,14.57
2022-11-15T03:12:00.222Z,13.52
2022-11-15T03:13:07.790Z,10.30
2022-11-15T03:14:28.605Z,9.90
2022-11-15T03:15:35.760Z,10.77
2022-11-15T03:16:42.403Z,9.32
2022-11-15T03:18:13.532Z,11.55
2022-11-15T03:19:33.979Z,9.77
2022-11-15T03:20:40.885Z,8.02
2022-11-15T03:21:47.261Z,9.93
2022-11-15T03:22:50.486Z,8.45
2022-11-15T03:23:54.099Z,9.60
2022-11-15T03:24:58.396Z,9.68
2022-11-15T03:26:05.150Z,11.07
2022-11-15T03:27:10.288Z,9.75
2022-11-15T03:28:14.499Z,10.93
2022-11-15T03:29:23.534Z,11.48
2022-11-15T03:30:26.040Z,9.68
2022-11-15T03:31:50.735Z,11.52
2022-11-15T03:32:59.015Z,12.05
2022-11-15T03:34:03.784Z,16.08
2022-11-15T03:35:07.634Z,15.05
2022-11-15T03:36:14.298Z,11.30
2022-11-15T03:37:17.631Z,12.93
2022-11-15T03:38:31.362Z,13.07
2022-11-15T03:39:34.039Z,12.20
2022-11-15T03:40:38.577Z,10.67
2022-11-15T03:41:43.622Z,13.52
2022-11-15T03:43:13.780Z,14.88
2022-11-15T03:44:31.326Z,14.48
2022-11-15T03:45:38.593Z,12.60
2022-11-15T03:46:46.518Z,12.00
2022-11-15T03:47:54.644Z,10.30
2022-11-15T03:49:07.638Z,10.52
2022-11-15T03:50:13.723Z,8.90
2022-11-15T03:51:15.875Z,10.20
2022-11-15T03:52:22.881Z,9.88
2022-11-15T03:53:24.780Z,8.73
2022-11-15T03:54:29.023Z,10.68
2022-11-15T03:55:32.986Z,10.48
2022-11-15T03:56:36.630Z,11.82
2022-11-15T03:57:38.211Z,9.90
2022-11-15T03:58:41.631Z,9.65
2022-11-15T03:59:46.003Z,10.82
2022-11-15T04:00:51.183Z,10.27
2022-11-15T04:01:52.893Z,11.55
2022-11-15T04:02:54.746Z,11.57
2022-11-15T04:03:59.791Z,13.88
2022-11-15T04:05:03.994Z,14.82
2022-11-15T04:06:06.345Z,12.68
2022-11-15T04:07:09.059Z,11.15
2022-11-15T04:08:14.971Z,14.20
2022-11-15T04:09:20.872Z,14.48
2022-11-15T04:10:23.103Z,13.15
2022-11-15T04:11:25.896Z,12.73
2022-11-15T04:12:35.064Z,11.60
2022-11-15T04:13:36.721Z,13.02
2022-11-15T04:14:38.362Z,13.18
2022-11-15T04:15:41.802Z,13.10
2022-11-15T04:16:44.281Z,13.45
2022-11-15T04:17:46.159Z,14.10
2022-11-15T04:19:09.584Z,13.63
2022-11-15T04:20:43.714Z,14.70
2022-11-15T04:22:08.074Z,13.60
2022-11-15T04:23:34.095Z,15.63
2022-11-15T04:24:36.863Z,14.35
2022-11-15T04:25:38.800Z,14.07
2022-11-15T04:26:42.935Z,12.13
2022-11-15T04:27:47.878Z,16.20
2022-11-15T04:29:08.584Z,15.30
2022-11-15T04:30:11.100Z,15.00
2022-11-15T04:31:12.740Z,14.23
2022-11-15T04:32:14.738Z,13.50
2022-11-15T04:33:16.772Z,11.90
2022-11-15T04:34:19.376Z,12.38
2022-11-15T04:35:21.867Z,13.32
2022-11-15T04:36:44.285Z,19.48
2022-11-15T04:37:49.403Z,16.55
2022-11-15T04:38:55.589Z,12.73
2022-11-15T04:39:57.124Z,10.73
2022-11-15T04:40:58.760Z,12.93
2022-11-15T04:42:00.944Z,9.48
2022-11-15T04:43:04.061Z,9.35
2022-11-15T04:44:06.779Z,10.15
2022-11-15T04:45:12.299Z,11.73
2022-11-15T04:46:14.752Z,10.60
2022-11-15T04:47:17.562Z,9.18
2022-11-15T04:48:22.662Z,9.95
2022-11-15T04:49:25.643Z,9.38
2022-11-15T04:50:27.172Z,9.93
2022-11-15T04:51:28.739Z,11.43
2022-11-15T04:52:30.811Z,11.63
2022-11-15T04:53:33.295Z,15.50
2022-11-15T04:54:35.835Z,13.60
2022-11-15T04:55:37.344Z,13.25
2022-11-15T04:56:41.982Z,10.75
2022-11-15T04:57:47.602Z,14.77
2022-11-15T04:58:52.739Z,15.02
2022-11-15T04:59:55.728Z,14.85
2022-11-15T05:00:57.799Z,15.60
2022-11-15T05:01:59.885Z,17.33
2022-11-15T05:03:20.608Z,14.38
2022-11-15T05:04:23.986Z,12.98
2022-11-15T05:05:25.799Z,14.60
2022-11-15T05:06:29.041Z,12.02
2022-11-15T05:07:30.796Z,12.43
2022-11-15T05:08:34.001Z,11.27
2022-11-15T05:09:35.755Z,13.32
2022-11-15T05:10:38.512Z,14.68
2022-11-15T05:11:41.694Z,12.10
2022-11-15T05:12:43.769Z,9.48
2022-11-15T05:13:47.000Z,9.57
2022-11-15T05:14:48.770Z,9.30
2022-11-15T05:15:50.332Z,14.73
2022-11-15T05:16:53.012Z,14.52
2022-11-15T05:17:58.901Z,14.13
2022-11-15T05:19:04.232Z,15.00
2022-11-15T05:20:06.413Z,14.23
2022-11-15T05:21:11.823Z,13.57
2022-11-15T05:22:13.754Z,14.05
2022-11-15T05:23:15.772Z,17.53
2022-11-15T05:24:17.946Z,13.82
2022-11-15T05:25:19.776Z,16.55
2022-11-15T05:26:21.775Z,15.55
2022-11-15T05:27:24.748Z,16.90
2022-11-15T05:28:26.804Z,16.50
2022-11-15T05:29:28.764Z,16.20
2022-11-15T05:30:30.978Z,15.55
2022-11-15T05:31:34.741Z,15.57
2022-11-15T05:32:37.584Z,16.45
2022-11-15T05:33:42.622Z,16.38
2022-11-15T05:34:45.220Z,17.17
2022-11-15T05:35:51.710Z,15.77
2022-11-15T05:36:54.612Z,16.17
2022-11-15T05:37:58.683Z,13.35
2022-11-15T05:39:00.784Z,15.00
2022-11-15T05:40:02.791Z,13.38
2022-11-15T05:41:05.180Z,12.48
2022-11-15T05:42:21.013Z,13.70
2022-11-15T05:43:23.571Z,13.40
2022-11-15T05:44:27.014Z,14.27
2022-11-15T05:45:30.312Z,13.80
2022-11-15T05:46:34.939Z,12.90
2022-11-15T05:47:42.435Z,11.80
2022-11-15T05:48:46.670Z,10.57
2022-11-15T05:49:49.604Z,12.48
2022-11-15T05:50:51.359Z,10.52
2022-11-15T05:51:56.647Z,11.25
2022-11-15T05:53:04.678Z,11.40
2022-11-15T05:54:09.049Z,10.15
2022-11-15T05:55:11.240Z,9.85
2022-11-15T05:56:13.064Z,10.55
2022-11-15T05:57:15.218Z,10.73
2022-11-15T05:58:19.027Z,11.05
2022-11-15T05:59:20.965Z,12.65
2022-11-15T06:00:22.890Z,9.70
2022-11-15T06:01:26.442Z,10.98
2022-11-15T06:02:29.974Z,13.63
2022-11-15T06:03:32.229Z,12.55
2022-11-15T06:04:35.640Z,11.88
2022-11-15T06:05:37.766Z,12.07
2022-11-15T06:06:42.985Z,11.13
2022-11-15T06:07:48.072Z,12.20
2022-11-15T06:08:50.985Z,13.00
2022-11-15T06:09:52.789Z,11.45
2022-11-15T06:10:55.189Z,11.15
2022-11-15T06:11:56.811Z,12.10
2022-11-15T06:13:02.255Z,10.40
2022-11-15T06:14:03.872Z,11.05
2022-11-15T06:15:07.047Z,10.70
2022-11-15T06:16:08.582Z,12.18
2022-11-15T06:17:11.505Z,14.20
2022-11-15T06:18:14.207Z,15.38
2022-11-15T06:19:16.926Z,19.17
2022-11-15T06:20:19.115Z,16.17
2022-11-15T06:21:20.874Z,16.70
2022-11-15T06:22:25.166Z,19.50
2022-11-15T06:23:28.103Z,20.20
2022-11-15T06:24:32.137Z,20.77
2022-11-15T06:25:33.669Z,22.25
2022-11-15T06:26:35.772Z,20.83
2022-11-15T06:27:38.296Z,24.05
2022-11-15T06:28:40.807Z,24.05
2022-11-15T06:29:42.944Z,25.67
2022-11-15T06:30:51.935Z,25.98
2022-11-15T06:31:55.920Z,22.92
2022-11-15T06:33:03.243Z,22.40
2022-11-15T06:34:05.742Z,27.95
2022-11-15T06:35:07.946Z,22.55
2022-11-15T06:36:16.206Z,23.50
2022-11-15T06:37:21.542Z,17.35
2022-11-15T06:38:23.803Z,16.67
2022-11-15T06:39:25.827Z,15.82
2022-11-15T06:40:27.863Z,17.05
2022-11-15T06:41:30.737Z,17.83
2022-11-15T06:42:34.974Z,15.40
2022-11-15T06:43:36.743Z,16.17
2022-11-15T06:44:39.135Z,16.65
2022-11-15T06:45:41.800Z,16.52
2022-11-15T06:46:43.299Z,18.90
2022-11-15T06:47:48.813Z,16.50
2022-11-15T06:48:52.043Z,14.30
2022-11-15T06:49:53.894Z,15.20
2022-11-15T06:50:56.584Z,13.93
2022-11-15T06:51:59.266Z,15.48
2022-11-15T06:53:06.144Z,14.18
2022-11-15T06:54:10.883Z,13.70
2022-11-15T06:55:12.827Z,12.60
2022-11-15T06:56:15.590Z,16.77
2022-11-15T06:57:20.322Z,34.40
2022-11-15T06:58:22.811Z,16.55
2022-11-15T06:59:24.816Z,17.53
2022-11-15T07:00:27.512Z,20.45
2022-11-15T07:01:33.018Z,18.88
2022-11-15T07:02:36.118Z,18.67
2022-11-15T07:03:38.694Z,17.05
2022-11-15T07:04:41.842Z,16.80
2022-11-15T07:05:51.455Z,18.35
2022-11-15T07:06:56.394Z,17.35
2022-11-15T07:08:01.465Z,17.30
2022-11-15T07:09:04.370Z,20.95
2022-11-15T07:10:07.571Z,18.55
2022-11-15T07:11:11.002Z,16.60
2022-11-15T07:12:17.187Z,16.20
2022-11-15T07:13:19.265Z,19.67
2022-11-15T07:14:22.220Z,15.65
2022-11-15T07:15:25.393Z,17.80
2022-11-15T07:16:28.436Z,13.68
2022-11-15T07:17:33.199Z,10.43
2022-11-15T07:18:36.923Z,11.85
2022-11-15T07:19:38.886Z,11.65
2022-11-15T07:20:43.768Z,10.68
2022-11-15T07:21:45.832Z,10.93
2022-11-15T07:34:25.225Z,18.75
2022-11-15T07:35:51.446Z,21.40
2022-11-15T07:37:10.886Z,20.90
2022-11-15T07:38:23.706Z,21.50
2022-11-15T07:39:29.119Z,23.63
2022-11-15T07:40:50.852Z,20.52
2022-11-15T07:42:28.444Z,13.65
2022-11-15T07:43:44.628Z,11.68
2022-11-15T07:44:56.697Z,11.98
2022-11-15T07:45:59.869Z,11.70
2022-11-15T07:47:12.298Z,11.73
2022-11-15T07:48:17.974Z,18.05
2022-11-15T07:52:35.788Z,14.02
2022-11-15T07:55:20.047Z,13.70
2022-11-15T07:56:43.041Z,13.27
2022-11-15T07:57:51.193Z,14.50
2022-11-15T07:59:11.575Z,12.10
2022-11-15T08:00:44.371Z,11.40
2022-11-15T08:01:56.465Z,12.77
2022-11-15T08:04:33.234Z,11.43
2022-11-15T08:05:36.373Z,11.52
2022-11-15T08:07:28.597Z,15.20
2022-11-15T08:09:00.244Z,16.92
2022-11-15T08:10:47.953Z,17.98
2022-11-15T08:15:21.107Z,16.70
2022-11-15T08:16:31.864Z,19.30
2022-11-15T08:18:20.718Z,17.60
2022-11-15T08:19:32.090Z,17.70
2022-11-15T08:22:42.659Z,20.77
2022-11-15T08:23:46.048Z,18.83
2022-11-15T08:25:01.821Z,15.80
2022-11-15T08:26:32.037Z,14.45
2022-11-15T08:27:35.377Z,16.25
2022-11-15T08:28:39.224Z,15.02
2022-11-15T08:29:59.626Z,13.50
2022-11-15T08:31:29.291Z,12.52
2022-11-15T08:32:42.523Z,10.55
2022-11-15T08:35:37.270Z,11.65
2022-11-15T08:36:49.430Z,12.38
2022-11-15T10:04:11.980Z,9.38
2022-11-15T10:05:20.734Z,12.35
2022-11-15T10:06:24.461Z,12.18
2022-11-15T10:07:47.281Z,10.25
2022-11-15T10:08:59.500Z,10.70
2022-11-15T10:10:40.273Z,10.35
2022-11-15T10:12:08.607Z,10.43
2022-11-15T10:13:55.621Z,9.98
2022-11-15T10:16:00.848Z,12.07
2022-11-15T10:17:15.708Z,11.32
2022-11-15T15:36:36.930Z,9.82
2022-11-15T15:38:22.063Z,11.65
2022-11-15T15:39:44.151Z,13.00
2022-11-15T15:42:18.271Z,15.20
2022-11-15T15:43:30.261Z,18.88
2022-11-15T15:46:18.851Z,17.38
2022-11-15T15:47:21.820Z,17.52
2022-11-15T15:48:24.041Z,13.07
2022-11-15T15:49:26.617Z,13.55
2022-11-15T15:50:29.299Z,11.57
2022-11-15T15:51:32.626Z,13.05
2022-11-15T15:52:35.070Z,13.98
2022-11-15T15:53:37.092Z,15.43
2022-11-15T15:54:39.871Z,14.15
2022-11-15T15:55:41.453Z,10.38
2022-11-15T15:56:43.904Z,11.38
2022-11-15T15:57:57.705Z,16.27
2022-11-15T15:59:00.059Z,11.38
2022-11-15T16:00:02.502Z,12.48
2022-11-15T16:01:04.325Z,10.93
2022-11-15T16:02:07.277Z,11.27
2022-11-15T16:03:09.315Z,12.70
2022-11-15T16:04:11.145Z,13.25
2022-11-15T16:05:16.239Z,14.50
2022-11-15T16:06:35.208Z,15.30
2022-11-15T16:07:39.471Z,16.00
2022-11-15T16:09:08.255Z,10.32
2022-11-15T16:10:19.574Z,14.35
2022-11-15T18:46:09.972Z,16.80
